TimeCDT,TemperatureF,Dew PointF,Humidity,Sea Level PressureIn,VisibilityMPH,Wind Direction,Wind SpeedMPH,Gust SpeedMPH,PrecipitationIn,Events,Conditions,WindDirDegrees,DateUTC
12:15 AM,33.4,32.7,97,30.14,7.0,Calm,Calm,-,N/A,,Clear,0,2012-11-03 05:15:00
12:35 AM,33.8,33.3,98,30.14,10.0,NE,4.6,-,N/A,,Clear,40,2012-11-03 05:35:00
12:55 AM,33.1,32.4,97,30.14,10.0,NNE,6.9,-,N/A,,Clear,30,2012-11-03 05:55:00
1:15 AM,32.9,32.0,96,30.15,10.0,NE,5.8,-,N/A,,Clear,40,2012-11-03 06:15:00
1:35 AM,32.9,31.6,95,30.15,10.0,NNE,3.5,-,N/A,,Clear,20,2012-11-03 06:35:00
1:55 AM,32.0,31.1,96,30.15,10.0,Calm,Calm,-,N/A,,Clear,0,2012-11-03 06:55:00
2:15 AM,32.7,31.8,96,30.16,10.0,NNE,3.5,-,N/A,,Clear,20,2012-11-03 07:15:00
2:35 AM,31.1,29.8,95,30.16,10.0,NNE,5.8,-,N/A,,Clear,30,2012-11-03 07:35:00
2:55 AM,31.1,29.7,94,30.16,10.0,NNE,5.8,-,N/A,,Clear,30,2012-11-03 07:55:00
3:15 AM,30.7,29.1,94,30.16,10.0,NNE,3.5,-,N/A,,Clear,30,2012-11-03 08:15:00
3:35 AM,30.2,28.9,95,30.15,10.0,NNE,3.5,-,N/A,,Clear,30,2012-11-03 08:35:00
3:55 AM,29.7,28.6,96,30.15,10.0,NE,3.5,-,N/A,,Clear,40,2012-11-03 08:55:00
4:15 AM,29.7,28.8,96,30.15,10.0,NE,4.6,-,N/A,,Scattered Clouds,50,2012-11-03 09:15:00
4:35 AM,30.7,29.7,96,30.13,10.0,NE,8.1,-,N/A,,Clear,50,2012-11-03 09:35:00
4:55 AM,31.6,30.2,94,30.13,10.0,NE,8.1,-,N/A,,Clear,50,2012-11-03 09:55:00
5:15 AM,32.0,30.4,94,30.13,10.0,ENE,6.9,-,N/A,,Clear,60,2012-11-03 10:15:00
5:35 AM,32.0,30.4,94,30.15,10.0,NE,3.5,-,N/A,,Scattered Clouds,50,2012-11-03 10:35:00
5:55 AM,31.5,29.8,94,30.15,10.0,Calm,Calm,-,N/A,,Mostly Cloudy,0,2012-11-03 10:55:00
6:15 AM,31.6,30.0,94,30.17,10.0,Calm,Calm,-,N/A,,Scattered Clouds,0,2012-11-03 11:15:00
6:35 AM,30.7,29.3,94,30.16,10.0,ENE,3.5,-,N/A,,Clear,70,2012-11-03 11:35:00
7:15 AM,31.3,29.8,94,30.17,10.0,Calm,Calm,-,N/A,,Scattered Clouds,0,2012-11-03 12:15:00
7:35 AM,30.4,29.3,96,30.18,10.0,Calm,Calm,-,N/A,,Mostly Cloudy,0,2012-11-03 12:35:00
8:15 AM,30.4,29.5,96,30.19,10.0,Calm,Calm,-,N/A,,Scattered Clouds,0,2012-11-03 13:15:00
8:35 AM,31.3,30.7,98,30.19,10.0,NE,3.5,-,N/A,,Clear,40,2012-11-03 13:35:00
9:15 AM,32.4,31.6,97,30.20,10.0,Calm,Calm,-,N/A,,Scattered Clouds,0,2012-11-03 14:15:00
9:35 AM,33.1,32.0,96,30.20,10.0,ENE,5.8,-,N/A,,Clear,60,2012-11-03 14:35:00
9:55 AM,34.3,32.2,92,30.20,10.0,ENE,8.1,-,N/A,,Clear,70,2012-11-03 14:55:00
10:15 AM,35.2,32.5,90,30.20,10.0,ENE,9.2,-,N/A,,Clear,60,2012-11-03 15:15:00
10:35 AM,35.8,32.5,88,30.20,10.0,ENE,8.1,-,N/A,,Clear,60,2012-11-03 15:35:00
10:55 AM,37.2,32.9,84,30.20,10.0,NE,6.9,-,N/A,,Clear,50,2012-11-03 15:55:00
11:15 AM,38.3,32.5,80,30.20,10.0,NE,5.8,-,N/A,,Clear,50,2012-11-03 16:15:00
11:35 AM,38.8,32.4,78,30.20,10.0,NE,6.9,-,N/A,,Clear,50,2012-11-03 16:35:00
11:55 AM,39.7,32.0,74,30.19,10.0,NE,5.8,-,N/A,,Mostly Cloudy,40,2012-11-03 16:55:00
12:15 PM,40.6,31.1,69,30.20,10.0,NNE,3.5,-,N/A,,Scattered Clouds,30,2012-11-03 17:15:00
12:35 PM,40.6,30.9,68,30.19,10.0,NE,3.5,-,N/A,,Scattered Clouds,50,2012-11-03 17:35:00
12:55 PM,41.0,30.9,67,30.18,10.0,NNE,5.8,-,N/A,,Mostly Cloudy,30,2012-11-03 17:55:00
1:15 PM,41.0,30.9,67,30.18,10.0,North,8.1,-,N/A,,Mostly Cloudy,360,2012-11-03 18:15:00
1:35 PM,41.4,31.8,69,30.17,10.0,NNE,6.9,-,N/A,,Mostly Cloudy,20,2012-11-03 18:35:00
1:55 PM,41.5,30.9,66,30.16,10.0,NNE,5.8,-,N/A,,Scattered Clouds,20,2012-11-03 18:55:00
2:15 PM,41.4,31.5,68,30.15,10.0,NE,8.1,-,N/A,,Mostly Cloudy,50,2012-11-03 19:15:00
2:35 PM,41.7,31.6,67,30.15,10.0,NE,6.9,-,N/A,,Overcast,40,2012-11-03 19:35:00
2:55 PM,42.4,31.8,66,30.15,10.0,NNE,6.9,-,N/A,,Overcast,20,2012-11-03 19:55:00
3:15 PM,42.8,31.5,64,30.15,10.0,NNE,6.9,-,N/A,,Overcast,30,2012-11-03 20:15:00
3:35 PM,42.1,31.8,67,30.15,10.0,North,6.9,-,N/A,,Mostly Cloudy,10,2012-11-03 20:35:00
3:55 PM,41.9,31.8,67,30.15,10.0,North,6.9,-,N/A,,Overcast,10,2012-11-03 20:55:00
4:15 PM,41.4,31.6,68,30.16,10.0,North,9.2,-,N/A,,Overcast,10,2012-11-03 21:15:00
4:35 PM,41.2,31.3,68,30.16,10.0,North,6.9,-,N/A,,Overcast,10,2012-11-03 21:35:00
5:15 PM,40.3,31.1,70,30.16,10.0,North,5.8,-,N/A,,Overcast,10,2012-11-03 22:15:00
5:35 PM,39.6,31.5,73,30.16,10.0,North,8.1,-,N/A,,Mostly Cloudy,350,2012-11-03 22:35:00
5:55 PM,39.2,31.1,73,30.15,10.0,North,6.9,-,N/A,,Mostly Cloudy,360,2012-11-03 22:55:00
6:15 PM,39.0,31.3,74,30.16,10.0,North,6.9,-,N/A,,Overcast,360,2012-11-03 23:15:00
6:35 PM,38.5,31.8,77,30.17,10.0,NNW,5.8,-,N/A,,Overcast,340,2012-11-03 23:35:00
6:55 PM,38.5,32.0,78,30.17,10.0,North,5.8,-,N/A,,Overcast,350,2012-11-03 23:55:00
7:15 PM,38.5,32.2,78,30.18,10.0,NNW,4.6,-,N/A,,Overcast,340,2012-11-04 00:15:00
7:35 PM,37.9,32.5,81,30.18,10.0,NNW,5.8,-,N/A,,Mostly Cloudy,340,2012-11-04 00:35:00
7:55 PM,37.6,32.7,83,30.18,10.0,North,5.8,-,N/A,,Scattered Clouds,350,2012-11-04 00:55:00
8:15 PM,37.6,32.4,81,30.17,10.0,North,5.8,-,N/A,,Mostly Cloudy,10,2012-11-04 01:15:00
8:35 PM,37.2,32.2,82,30.17,10.0,NNE,5.8,-,N/A,,Scattered Clouds,20,2012-11-04 01:35:00
8:55 PM,36.3,32.0,84,30.17,10.0,NNE,6.9,-,N/A,,Mostly Cloudy,20,2012-11-04 01:55:00
9:15 PM,34.5,31.3,88,30.18,10.0,NNE,6.9,-,N/A,,Scattered Clouds,20,2012-11-04 02:15:00
9:35 PM,33.4,30.7,90,30.18,10.0,NE,5.8,-,N/A,,Clear,40,2012-11-04 02:35:00
9:55 PM,34.2,31.1,89,30.18,10.0,NE,5.8,-,N/A,,Scattered Clouds,50,2012-11-04 02:55:00
10:15 PM,33.6,30.6,89,30.18,10.0,ENE,5.8,-,N/A,,Scattered Clouds,60,2012-11-04 03:15:00
10:35 PM,33.1,30.0,89,30.18,10.0,ENE,6.9,-,N/A,,Scattered Clouds,60,2012-11-04 03:35:00
10:55 PM,32.5,29.7,89,30.18,10.0,ENE,5.8,-,N/A,,Clear,70,2012-11-04 03:55:00
11:15 PM,32.2,29.3,89,30.18,10.0,ENE,5.8,-,N/A,,Scattered Clouds,70,2012-11-04 04:15:00
11:35 PM,32.5,29.5,88,30.18,10.0,ENE,4.6,-,N/A,,Mostly Cloudy,70,2012-11-04 04:35:00
11:55 PM,33.4,30.0,87,30.18,10.0,East,3.5,-,N/A,,Overcast,80,2012-11-04 04:55:00